• Join FlightAware (Why Join?)
  • Login
  • US Flag 
11:28AM EDT


 

Airport Tracker/Info


-or-


 

Live Flight TrackerFlight Track Log ✈ SWA3960 ✈ 12-Apr-2013 ✈ KLAS - KSNA

Flight Track Log - Related Links

Times and Time Zones

All times are in EDT time to prevent confusion due to time zone crossing. See the SWA3960 flight status page for this flight to view local times or setup timezone preferences in your user account.

Time Position Orientation Groundspeed Altitude Reporting Facility
EDT Latitude Longitude Course Direction KTS MPH feet Rate Location/Type
02:51PM 36.0758 -115.2267 270° West 193 222 4,900  Level Los Angeles Center
02:52PM 36.0533 -115.2625 232° Southwest 220 253 5,900 1,260 Climbing Los Angeles Center
02:53PM 35.9644 -115.3019 200° South 273 314 7,200 2,160 Climbing Los Angeles Center
02:54PM 35.8842 -115.3119 186° South 281 323 10,400 2,400 Climbing Los Angeles Center
02:55PM 35.7917 -115.3075 178° South 308 354 12,800 2,640 Climbing Los Angeles Center
02:56PM 35.6717 -115.3111 181° South 364 419 16,500 3,360 Climbing Los Angeles Center
02:57PM 35.5975 -115.4028 225° Southwest 374 430 19,800 3,120 Climbing Los Angeles Center
02:58PM 35.5092 -115.5222 228° Southwest 387 445 23,000 2,700 Climbing Los Angeles Center
02:59PM 35.4411 -115.6153 228° Southwest 405 466 25,500 2,400 Climbing Los Angeles Center
03:00PM 35.3619 -115.7186 227° Southwest 414 476 28,000 1,200 Climbing Los Angeles Center
03:01PM 35.2650 -115.8486 228° Southwest 427 491 28,000  Level Los Angeles Center
03:02PM 35.1822 -115.9583 227° Southwest 437 503 28,000  Level Los Angeles Center
03:03PM 35.0983 -116.0683 227° Southwest 441 507 28,000  Level Los Angeles Center
03:04PM 35.0142 -116.1772 227° Southwest 441 507 28,000  Level Los Angeles Center
03:06PM 34.9308 -116.2881 227° Southwest 442 509 28,000  Level Los Angeles Center
03:07PM 34.8472 -116.3981 227° Southwest 443 510 28,000  Level Los Angeles Center
03:08PM 34.7453 -116.5281 226° Southwest 442 509 28,000  Level Los Angeles Center
03:09PM 34.6572 -116.6331 224° Southwest 443 510 28,000 -1,500 Level Los Angeles Center
03:10PM 34.5717 -116.7411 226° Southwest 442 509 25,000 -3,000 Descending Los Angeles Center
03:11PM 34.4869 -116.8442 225° Southwest 433 498 21,800 -3,240 Descending Los Angeles Center
03:12PM 34.4042 -116.9414 224° Southwest 417 480 18,400 -3,360 Descending Los Angeles Center
03:13PM 34.3261 -117.0364 225° Southwest 402 463 14,900 -2,640 Descending Los Angeles Center
03:14PM 34.2247 -117.1147 213° Southwest 363 418 13,000 -960 Descending Los Angeles Center
03:15PM 34.1294 -117.1294 187° South 345 397 13,000  Level Los Angeles Center
03:15PM 34.0833 -117.1333 184° South 347 399 13,000 -600 Level Southern California TRACON
03:16PM 34.0000 -117.1833 206° Southwest 356 410 12,200 -1,020 Descending Southern California TRACON
03:17PM 33.9167 -117.2167 198° South 337 388 11,100 -1,320 Descending Southern California TRACON
03:18PM 33.8667 -117.3000 234° Southwest 315 362 9,700 -1,440 Descending Southern California TRACON
03:19PM 33.8408 -117.3911 251° West 303 349 8,300 -840 Descending Los Angeles Center
03:20PM 33.8122 -117.4822 249° West 294 338 8,000 -300 Descending Los Angeles Center
03:21PM 33.7917 -117.5556 251° West 248 285 7,700 -720 Descending Los Angeles Center
03:22PM 33.7842 -117.6256 263° West 225 259 6,600 -1,320 Descending Los Angeles Center
03:23PM 33.7833 -117.7000 269° West 219 252 5,200 -1,380 Descending Southern California TRACON
03:24PM 33.7833 -117.7667 270° West 204 235 4,000 -1,200 Descending Southern California TRACON
03:25PM 33.7667 -117.8167 248° West 178 205 2,800 -1,500 Descending Southern California TRACON
03:26PM 33.7167 -117.8333 195° South 150 173 1,100 -1,260 Descending Southern California TRACON
03:27PM 33.6833 -117.8667 220° Southwest 131 151 300 -840 Descending Southern California TRACON
03:29PM 33.6757 -117.8682 132° Southeast  Level Estimated
03:36PM 33.6757 -117.8682 132° Southeast  Level Estimated